Archival Weather

Chicago O'Hare International

Chicago, Illinois (KORD)

Report from: Friday, March 30, 2012 7:29 AM CDT
Current time: Thursday, July 18, 2024 10:36 PM CDT

Current weather – Weather history – Daily summaries
Weather forecast

Present weatherHeavy thunderstorm with rain, mist
Temperature8.0°C (46.4°F)
Wind chill5.8°C (42.4°F)
Dew point6.0°C (42.8°F)
Winds 7 kts (3.6 m/s, 8.1 mph) Southeast (140°)
Visibility3 mi. (4.8 km)
Clouds Scattered clouds 1,700 ft. (518 m)
Ceiling: Overcast with cumulonimbus 4,900 ft. (1,494 m)
Altimeter29.76 in.Hg (1008 mB)
Precipitiation0.47 in. (12 mm)
Precip. events Snow pellets began 12:15 PM
Snow pellets ended 12:20 PM
Relative humidity87 %
Density altitude-519 ft. (-158 m)
Remarks Special weather observation
Automated weather observing station with precipitation discriminator
Lightning observed: intra cloud, cloud to ground
Frequent northeast east thunderstorm northeast east moving northeast
Flight conditions Marginal Visual Meteorological Conditions
Raw data2012-03-30 12:29 KORD 301229Z 14007KT 3SM +TSRA BR SCT017 OVC049CB 08/06 A2976 RMK AO2 GSB15E20 FRQ LTGICCG NE-E TS NE-E MOV NE P0047 SPECI
An error has occurred. This application may no longer respond until reloaded. Reload 🗙